createdAt,value
2023-08-27T00:00:20.329Z,987.43
2023-08-27T00:01:20.419Z,987.42
2023-08-27T00:02:20.331Z,987.33
2023-08-27T00:03:20.360Z,987.31
2023-08-27T00:04:20.321Z,987.27
2023-08-27T00:05:20.290Z,987.22
2023-08-27T00:06:20.319Z,987.25
2023-08-27T00:07:20.278Z,987.18
2023-08-27T00:08:20.291Z,987.20
2023-08-27T00:09:20.269Z,987.23
2023-08-27T00:10:20.252Z,987.21
2023-08-27T00:11:20.256Z,987.27
2023-08-27T00:12:20.564Z,987.25
2023-08-27T00:13:20.251Z,987.23
2023-08-27T00:14:20.258Z,987.29
2023-08-27T00:15:20.226Z,987.34
2023-08-27T00:16:20.287Z,987.33
2023-08-27T00:17:20.214Z,987.32
2023-08-27T00:18:20.212Z,987.22
2023-08-27T00:19:20.217Z,987.11
2023-08-27T00:20:20.195Z,987.13
2023-08-27T00:21:20.194Z,987.18
2023-08-27T00:22:20.204Z,987.28
2023-08-27T00:23:20.178Z,987.36
2023-08-27T00:24:20.188Z,987.37
2023-08-27T00:25:20.172Z,987.34
2023-08-27T00:26:20.164Z,987.30
2023-08-27T00:27:20.162Z,987.18
2023-08-27T00:28:20.157Z,987.19
2023-08-27T00:29:20.130Z,987.20
2023-08-27T00:30:20.136Z,987.20
2023-08-27T00:31:20.138Z,987.23
2023-08-27T00:32:25.915Z,987.20
2023-08-27T00:33:20.142Z,987.10
2023-08-27T00:34:20.102Z,987.05
2023-08-27T00:35:20.098Z,987.05
2023-08-27T00:36:20.085Z,987.08
2023-08-27T00:37:20.086Z,987.08
2023-08-27T00:38:20.101Z,987.10
2023-08-27T00:39:20.075Z,987.10
2023-08-27T00:40:20.050Z,987.09
2023-08-27T00:41:20.066Z,987.07
2023-08-27T00:42:20.047Z,987.05
2023-08-27T00:43:20.044Z,986.98
2023-08-27T00:44:20.025Z,986.95
2023-08-27T00:45:20.027Z,986.98
2023-08-27T00:46:20.016Z,987.04
2023-08-27T00:47:20.015Z,987.00
2023-08-27T00:48:20.010Z,987.02
2023-08-27T00:49:19.997Z,986.95
2023-08-27T00:50:20.002Z,986.93
2023-08-27T00:51:19.992Z,986.84
2023-08-27T00:52:19.990Z,986.77
2023-08-27T00:53:19.969Z,986.72
2023-08-27T00:54:20.007Z,986.68
2023-08-27T00:55:19.981Z,986.69
2023-08-27T00:56:19.986Z,986.78
2023-08-27T00:57:19.945Z,986.82
2023-08-27T00:58:19.948Z,986.88
2023-08-27T00:59:19.961Z,986.89
2023-08-27T01:00:19.966Z,986.89
2023-08-27T01:01:19.983Z,986.85
2023-08-27T01:02:19.963Z,986.84
2023-08-27T01:03:19.983Z,986.82
2023-08-27T01:04:19.922Z,986.77
2023-08-27T01:05:19.925Z,986.79
2023-08-27T01:06:19.908Z,986.80
2023-08-27T01:07:19.901Z,986.81
2023-08-27T01:08:19.877Z,986.77
2023-08-27T01:09:19.883Z,986.81
2023-08-27T01:10:19.908Z,986.79
2023-08-27T01:11:19.871Z,986.81
2023-08-27T01:12:19.861Z,986.87
2023-08-27T01:13:19.844Z,986.90
2023-08-27T01:14:19.842Z,986.96
2023-08-27T01:15:19.863Z,987.04
2023-08-27T01:16:19.840Z,987.06
2023-08-27T01:17:19.834Z,987.02
2023-08-27T01:18:19.827Z,986.95
2023-08-27T01:19:19.805Z,986.85
2023-08-27T01:20:19.802Z,986.75
2023-08-27T01:21:19.803Z,986.68
2023-08-27T01:22:19.795Z,986.59
2023-08-27T01:23:19.786Z,986.47
2023-08-27T01:24:19.777Z,986.41
2023-08-27T01:25:19.766Z,986.38
2023-08-27T01:26:19.795Z,986.35
2023-08-27T01:27:19.769Z,986.31
2023-08-27T01:28:19.762Z,986.33
2023-08-27T01:29:19.757Z,986.35
2023-08-27T01:30:19.741Z,986.38
2023-08-27T01:31:19.765Z,986.41
2023-08-27T01:32:20.057Z,986.38
2023-08-27T01:33:19.730Z,986.37
2023-08-27T01:34:19.719Z,986.37
2023-08-27T01:35:19.718Z,986.36
2023-08-27T01:36:19.696Z,986.31
2023-08-27T01:37:19.697Z,986.31
2023-08-27T01:38:19.678Z,986.34
2023-08-27T01:39:19.689Z,986.38
2023-08-27T01:40:19.683Z,986.37
2023-08-27T01:41:19.657Z,986.43
2023-08-27T01:42:19.666Z,986.40
2023-08-27T01:43:19.852Z,986.40
2023-08-27T01:44:19.648Z,986.36
2023-08-27T01:45:19.637Z,986.38
2023-08-27T01:46:19.679Z,986.39
2023-08-27T01:47:19.661Z,986.34
2023-08-27T01:48:19.618Z,986.39
2023-08-27T01:49:19.633Z,986.39
2023-08-27T01:50:19.619Z,986.41
2023-08-27T01:51:19.648Z,986.47
2023-08-27T01:52:19.605Z,986.49
2023-08-27T01:53:19.603Z,986.50
2023-08-27T01:54:19.579Z,986.50
2023-08-27T01:55:19.586Z,986.48
2023-08-27T01:56:19.571Z,986.47
2023-08-27T01:57:19.577Z,986.44
2023-08-27T01:58:19.596Z,986.48
2023-08-27T01:59:19.547Z,986.47
2023-08-27T02:00:19.594Z,986.47
2023-08-27T02:01:19.550Z,986.39
2023-08-27T02:02:19.598Z,986.41
2023-08-27T02:03:19.672Z,986.40
2023-08-27T02:04:19.545Z,986.42
2023-08-27T02:05:19.537Z,986.49
2023-08-27T02:06:19.505Z,986.59
2023-08-27T02:07:19.481Z,986.67
2023-08-27T02:08:19.475Z,986.75
2023-08-27T02:09:19.505Z,986.72
2023-08-27T02:10:19.481Z,986.64
2023-08-27T02:11:19.469Z,986.55
2023-08-27T02:12:19.468Z,986.53
2023-08-27T02:13:19.475Z,986.55
2023-08-27T02:14:19.483Z,986.56
2023-08-27T02:15:19.455Z,986.51
2023-08-27T02:16:19.457Z,986.53
2023-08-27T02:17:19.420Z,986.57
2023-08-27T02:18:19.433Z,986.62
2023-08-27T02:19:19.405Z,986.60
2023-08-27T02:20:19.429Z,986.62
2023-08-27T02:21:19.414Z,986.62
2023-08-27T02:22:19.405Z,986.66
2023-08-27T02:23:19.386Z,986.74
2023-08-27T02:24:19.382Z,986.77
2023-08-27T02:25:19.382Z,986.76
2023-08-27T02:26:19.372Z,986.80
2023-08-27T02:27:19.365Z,986.78
2023-08-27T02:28:19.357Z,986.78
2023-08-27T02:29:19.343Z,986.78
2023-08-27T02:30:19.417Z,986.77
2023-08-27T02:31:19.424Z,986.74
2023-08-27T02:32:19.326Z,986.74
2023-08-27T02:33:19.344Z,986.70
2023-08-27T02:34:19.323Z,986.68
2023-08-27T02:35:19.320Z,986.68
2023-08-27T02:36:19.298Z,986.66
2023-08-27T02:37:19.274Z,986.61
2023-08-27T02:38:19.473Z,986.52
2023-08-27T02:39:19.262Z,986.46
2023-08-27T02:40:19.287Z,986.41
2023-08-27T02:41:19.262Z,986.39
2023-08-27T02:42:19.266Z,986.41
2023-08-27T02:43:19.278Z,986.39
2023-08-27T02:44:19.256Z,986.43
2023-08-27T02:45:19.261Z,986.42
2023-08-27T02:46:19.298Z,986.39
2023-08-27T02:47:19.239Z,986.39
2023-08-27T02:48:19.219Z,986.37
2023-08-27T02:49:19.233Z,986.39
2023-08-27T02:50:19.228Z,986.39
2023-08-27T02:51:19.222Z,986.41
2023-08-27T02:52:19.221Z,986.37
2023-08-27T02:53:19.198Z,986.35
2023-08-27T02:54:19.194Z,986.34
2023-08-27T02:55:19.181Z,986.32
2023-08-27T02:56:19.157Z,986.30
2023-08-27T02:57:19.158Z,986.28
2023-08-27T02:58:19.169Z,986.34
2023-08-27T02:59:19.356Z,986.42
2023-08-27T03:00:19.161Z,986.46
2023-08-27T03:01:19.179Z,986.48
2023-08-27T03:02:19.152Z,986.46
2023-08-27T03:03:19.625Z,986.43
2023-08-27T03:04:19.112Z,986.30
2023-08-27T03:05:19.209Z,986.28
2023-08-27T03:06:19.627Z,986.27
2023-08-27T03:07:19.482Z,986.23
2023-08-27T03:08:19.306Z,986.22
2023-08-27T03:09:19.105Z,986.23
2023-08-27T03:10:19.105Z,986.19
2023-08-27T03:11:19.080Z,986.19
2023-08-27T03:12:19.062Z,986.12
2023-08-27T03:13:19.039Z,986.11
2023-08-27T03:14:19.105Z,986.04
2023-08-27T03:15:19.029Z,985.94
2023-08-27T03:16:19.074Z,985.96
2023-08-27T03:17:19.011Z,985.93
2023-08-27T03:18:19.083Z,985.95
2023-08-27T03:19:19.013Z,986.07
2023-08-27T03:20:19.005Z,986.12
2023-08-27T03:21:19.213Z,986.19
2023-08-27T03:22:18.998Z,986.21
2023-08-27T03:23:19.000Z,986.21
2023-08-27T03:24:18.987Z,986.25
2023-08-27T03:25:18.972Z,986.28
2023-08-27T03:26:19.038Z,986.31
2023-08-27T03:27:18.938Z,986.33
2023-08-27T03:28:18.963Z,986.32
2023-08-27T03:29:18.958Z,986.33
2023-08-27T03:30:18.950Z,986.28
2023-08-27T03:31:18.947Z,986.26
2023-08-27T03:32:18.918Z,986.22
2023-08-27T03:33:18.905Z,986.18
2023-08-27T03:34:18.951Z,986.23
2023-08-27T03:35:18.903Z,986.26
2023-08-27T03:36:18.911Z,986.26
2023-08-27T03:37:18.877Z,986.21
2023-08-27T03:38:18.890Z,986.20
2023-08-27T03:39:18.878Z,986.16
2023-08-27T03:40:18.881Z,986.18
2023-08-27T03:41:18.863Z,986.16
2023-08-27T03:42:18.875Z,986.13
2023-08-27T03:43:18.896Z,986.06
2023-08-27T03:44:18.836Z,986.06
2023-08-27T03:45:18.842Z,986.03
2023-08-27T03:46:18.866Z,986.02
2023-08-27T03:47:18.814Z,985.96
2023-08-27T03:48:18.804Z,985.95
2023-08-27T03:49:18.799Z,985.97
2023-08-27T03:50:18.837Z,985.98
2023-08-27T03:51:19.008Z,985.99
2023-08-27T03:52:18.808Z,986.04
2023-08-27T03:53:18.803Z,986.00
2023-08-27T03:54:18.780Z,985.96
2023-08-27T03:55:18.807Z,985.98
2023-08-27T03:56:18.778Z,985.92
2023-08-27T03:57:18.818Z,985.94
2023-08-27T03:58:19.005Z,985.97
2023-08-27T03:59:18.766Z,985.95
2023-08-27T04:00:18.789Z,985.96
2023-08-27T04:01:18.778Z,985.94
2023-08-27T04:02:18.766Z,985.93
2023-08-27T04:03:19.281Z,985.95
2023-08-27T04:04:18.793Z,985.92
2023-08-27T04:05:18.693Z,985.89
2023-08-27T04:06:19.009Z,985.91
2023-08-27T04:07:18.735Z,985.87
2023-08-27T04:08:19.098Z,985.89
2023-08-27T04:09:18.668Z,985.96
2023-08-27T04:10:18.697Z,986.06
2023-08-27T04:11:18.656Z,986.13
2023-08-27T04:12:19.068Z,986.15
2023-08-27T04:13:18.685Z,986.14
2023-08-27T04:14:18.633Z,986.10
2023-08-27T04:15:18.636Z,986.03
2023-08-27T04:16:18.644Z,986.00
2023-08-27T04:17:18.593Z,985.96
2023-08-27T04:18:18.594Z,985.97
2023-08-27T04:19:18.603Z,986.02
2023-08-27T04:20:18.602Z,986.04
2023-08-27T04:21:18.595Z,986.01
2023-08-27T04:22:18.585Z,986.02
2023-08-27T04:23:18.587Z,985.99
2023-08-27T04:24:18.611Z,986.00
2023-08-27T04:25:18.554Z,986.00
2023-08-27T04:26:18.560Z,986.03
2023-08-27T04:27:18.588Z,986.05
2023-08-27T04:28:18.556Z,986.03
2023-08-27T04:29:18.562Z,986.00
2023-08-27T04:30:18.711Z,985.94
2023-08-27T04:31:18.568Z,985.94
2023-08-27T04:32:18.514Z,986.01
2023-08-27T04:33:18.523Z,986.01
2023-08-27T04:34:18.530Z,986.03
2023-08-27T04:35:18.488Z,985.96
2023-08-27T04:36:18.476Z,985.97
2023-08-27T04:37:18.487Z,985.97
2023-08-27T04:38:18.492Z,986.00
2023-08-27T04:39:18.476Z,986.00
2023-08-27T04:40:18.439Z,985.99
2023-08-27T04:41:18.457Z,986.02
2023-08-27T04:42:18.451Z,986.02
2023-08-27T04:43:18.433Z,986.02
2023-08-27T04:44:18.441Z,986.03
2023-08-27T04:45:18.452Z,985.94
2023-08-27T04:46:18.435Z,985.92
2023-08-27T04:47:18.409Z,985.90
2023-08-27T04:48:18.401Z,985.88
2023-08-27T04:49:18.418Z,985.87
2023-08-27T04:50:18.386Z,985.91
2023-08-27T04:51:18.398Z,985.93
2023-08-27T04:52:31.475Z,986.00
2023-08-27T04:53:18.374Z,986.01
2023-08-27T04:54:18.374Z,986.08
2023-08-27T04:55:18.343Z,986.12
2023-08-27T04:56:18.332Z,986.08
2023-08-27T04:57:18.336Z,986.11
2023-08-27T04:58:18.321Z,986.09
2023-08-27T04:59:18.318Z,986.07
2023-08-27T05:00:18.330Z,986.07
2023-08-27T05:01:18.358Z,986.09
2023-08-27T05:02:18.332Z,986.16
2023-08-27T05:03:18.335Z,986.18
2023-08-27T05:04:18.301Z,986.19
2023-08-27T05:05:18.285Z,986.20
2023-08-27T05:06:18.278Z,986.18
2023-08-27T05:07:18.285Z,986.21
2023-08-27T05:08:18.272Z,986.18
2023-08-27T05:09:18.276Z,986.15
2023-08-27T05:10:18.283Z,986.14
2023-08-27T05:11:18.226Z,986.14
2023-08-27T05:12:18.258Z,986.13
2023-08-27T05:13:18.238Z,986.11
2023-08-27T05:14:18.228Z,986.11
2023-08-27T05:15:18.263Z,986.16
2023-08-27T05:16:18.234Z,986.09
2023-08-27T05:17:18.217Z,986.04
2023-08-27T05:18:18.258Z,986.06
2023-08-27T05:19:18.189Z,986.01
2023-08-27T05:20:18.195Z,985.98
2023-08-27T05:21:18.192Z,985.98
2023-08-27T05:22:18.166Z,986.01
2023-08-27T05:23:18.148Z,986.05
2023-08-27T05:24:18.143Z,986.09
2023-08-27T05:25:18.151Z,986.08
2023-08-27T05:26:18.386Z,986.13
2023-08-27T05:27:18.119Z,986.11
2023-08-27T05:28:18.128Z,986.10
2023-08-27T05:29:18.309Z,986.10
2023-08-27T05:30:18.112Z,986.07
2023-08-27T05:31:18.169Z,986.06
2023-08-27T05:32:18.097Z,986.04
2023-08-27T05:33:18.118Z,986.07
2023-08-27T05:34:18.080Z,986.03
2023-08-27T05:35:18.104Z,986.01
2023-08-27T05:36:18.081Z,986.02
2023-08-27T05:37:18.088Z,985.97
2023-08-27T05:38:18.103Z,985.98
2023-08-27T05:39:18.090Z,985.97
2023-08-27T05:40:18.073Z,986.02
2023-08-27T05:41:18.086Z,986.04
2023-08-27T05:42:18.057Z,986.10
2023-08-27T05:43:18.012Z,986.10
2023-08-27T05:44:18.041Z,986.09
2023-08-27T05:45:18.034Z,986.13
2023-08-27T05:46:18.239Z,986.09
2023-08-27T05:47:18.054Z,986.18
2023-08-27T05:48:18.004Z,986.22
2023-08-27T05:49:17.999Z,986.31
2023-08-27T05:50:18.029Z,986.35
2023-08-27T05:51:17.985Z,986.37
2023-08-27T05:52:18.037Z,986.42
2023-08-27T05:53:18.039Z,986.45
2023-08-27T05:54:17.992Z,986.43
2023-08-27T05:55:18.005Z,986.38
2023-08-27T05:56:17.952Z,986.32
2023-08-27T05:57:17.916Z,986.27
2023-08-27T05:58:17.975Z,986.21
2023-08-27T05:59:17.975Z,986.21
2023-08-27T06:00:17.900Z,986.22
2023-08-27T06:01:17.931Z,986.28
2023-08-27T06:02:18.092Z,986.32
2023-08-27T06:03:17.942Z,986.29
2023-08-27T06:04:17.907Z,986.30
2023-08-27T06:05:17.879Z,986.28
2023-08-27T06:06:17.876Z,986.32
2023-08-27T06:07:17.897Z,986.28
2023-08-27T06:08:17.859Z,986.30
2023-08-27T06:09:17.854Z,986.24
2023-08-27T06:10:17.853Z,986.11
2023-08-27T06:11:17.842Z,986.03
2023-08-27T06:12:17.815Z,986.01
2023-08-27T06:13:17.836Z,985.95
2023-08-27T06:14:17.825Z,985.94
2023-08-27T06:15:17.848Z,985.96
2023-08-27T06:16:17.818Z,985.94
2023-08-27T06:17:17.791Z,985.93
2023-08-27T06:18:17.926Z,985.91
2023-08-27T06:19:17.794Z,985.87
2023-08-27T06:20:17.774Z,985.82
2023-08-27T06:21:17.749Z,985.81
2023-08-27T06:22:17.780Z,985.79
2023-08-27T06:23:17.777Z,985.74
2023-08-27T06:24:17.747Z,985.73
2023-08-27T06:25:17.761Z,985.68
2023-08-27T06:26:17.740Z,985.68
2023-08-27T06:27:17.738Z,985.68
2023-08-27T06:28:17.720Z,985.67
2023-08-27T06:29:17.740Z,985.68
2023-08-27T06:30:17.958Z,985.69
2023-08-27T06:31:17.775Z,985.77
2023-08-27T06:32:17.757Z,985.79
2023-08-27T06:33:17.729Z,985.81
2023-08-27T06:34:17.683Z,985.84
2023-08-27T06:35:17.885Z,985.86
2023-08-27T06:36:17.680Z,985.79
2023-08-27T06:37:17.671Z,985.76
2023-08-27T06:38:17.661Z,985.75
2023-08-27T06:39:17.640Z,985.72
2023-08-27T06:40:17.662Z,985.69
2023-08-27T06:41:17.633Z,985.63
2023-08-27T06:42:17.694Z,985.61
2023-08-27T06:43:17.620Z,985.67
2023-08-27T06:44:17.688Z,985.69
2023-08-27T06:45:17.672Z,985.69
2023-08-27T06:46:17.695Z,985.65
2023-08-27T06:47:17.635Z,985.66
2023-08-27T06:48:17.619Z,985.60
2023-08-27T06:49:17.653Z,985.58
2023-08-27T06:50:17.600Z,985.58
2023-08-27T06:51:17.555Z,985.58
2023-08-27T06:52:17.581Z,985.59
2023-08-27T06:53:17.615Z,985.60
2023-08-27T06:54:17.578Z,985.59
2023-08-27T06:55:17.547Z,985.55
2023-08-27T06:56:17.545Z,985.54
2023-08-27T06:57:17.523Z,985.51
2023-08-27T06:58:17.507Z,985.51
2023-08-27T06:59:17.497Z,985.52
2023-08-27T07:00:17.508Z,985.48
2023-08-27T07:01:17.600Z,985.48
2023-08-27T07:02:17.545Z,985.44
2023-08-27T07:03:17.531Z,985.38
2023-08-27T07:04:17.539Z,985.33
2023-08-27T07:05:17.478Z,985.29
2023-08-27T07:06:17.474Z,985.27
2023-08-27T07:07:17.464Z,985.28
2023-08-27T07:08:17.454Z,985.23
2023-08-27T07:09:17.450Z,985.20
2023-08-27T07:10:17.456Z,985.21
2023-08-27T07:11:17.443Z,985.14
2023-08-27T07:12:17.494Z,985.12
2023-08-27T07:13:17.432Z,985.09
2023-08-27T07:14:17.419Z,985.11
2023-08-27T07:15:17.443Z,985.11
2023-08-27T07:16:17.499Z,985.17
2023-08-27T07:17:17.398Z,985.18
2023-08-27T07:18:17.396Z,985.24
2023-08-27T07:19:17.426Z,985.26
2023-08-27T07:20:17.376Z,985.31
2023-08-27T07:21:17.388Z,985.39
2023-08-27T07:22:17.414Z,985.46
2023-08-27T07:23:17.402Z,985.58
2023-08-27T07:24:17.328Z,985.56
2023-08-27T07:25:19.236Z,985.57
2023-08-27T07:26:17.384Z,985.52
2023-08-27T07:27:17.329Z,985.42
2023-08-27T07:28:17.335Z,985.36
2023-08-27T07:29:17.349Z,985.39
2023-08-27T07:30:17.328Z,985.37
2023-08-27T07:31:17.297Z,985.39
2023-08-27T07:32:17.337Z,985.43
2023-08-27T07:33:17.287Z,985.46
2023-08-27T07:34:17.300Z,985.48
2023-08-27T07:35:17.255Z,985.51
2023-08-27T07:36:17.261Z,985.56
2023-08-27T07:37:17.247Z,985.64
2023-08-27T07:38:17.263Z,985.66
2023-08-27T07:39:17.250Z,985.71
2023-08-27T07:40:17.280Z,985.79
2023-08-27T07:41:17.253Z,985.86
2023-08-27T07:42:17.273Z,985.88
2023-08-27T07:43:17.241Z,985.87
2023-08-27T07:44:17.223Z,985.86
2023-08-27T07:45:17.228Z,985.86
2023-08-27T07:46:17.233Z,985.80
2023-08-27T07:47:17.209Z,985.78
2023-08-27T07:48:17.267Z,985.83
2023-08-27T07:49:17.172Z,985.79
2023-08-27T07:50:17.200Z,985.82
2023-08-27T07:51:17.181Z,985.82
2023-08-27T07:52:17.361Z,985.80
2023-08-27T07:53:17.140Z,985.79
2023-08-27T07:54:17.151Z,985.80
2023-08-27T07:55:17.176Z,985.80
2023-08-27T07:56:17.359Z,985.76
2023-08-27T07:57:17.178Z,985.79
2023-08-27T07:58:17.118Z,985.82
2023-08-27T07:59:17.112Z,985.82
2023-08-27T08:00:17.333Z,985.83
2023-08-27T08:01:17.129Z,985.87
2023-08-27T08:02:17.088Z,985.88
2023-08-27T08:03:17.374Z,985.84
2023-08-27T08:04:17.573Z,985.82
2023-08-27T08:05:18.085Z,985.78
2023-08-27T08:06:17.093Z,985.78
2023-08-27T08:07:17.469Z,985.74
2023-08-27T08:08:17.272Z,985.72
2023-08-27T08:09:17.071Z,985.73
2023-08-27T08:10:17.036Z,985.70
2023-08-27T08:11:17.252Z,985.66
2023-08-27T08:12:17.025Z,985.75
2023-08-27T08:13:17.019Z,985.84
2023-08-27T08:14:17.024Z,985.97
2023-08-27T08:15:17.010Z,986.08
2023-08-27T08:16:17.069Z,986.13
2023-08-27T08:17:17.405Z,986.18
2023-08-27T08:18:17.034Z,986.15
2023-08-27T08:19:16.978Z,986.13
2023-08-27T08:20:16.999Z,986.11
2023-08-27T08:21:16.975Z,985.98
2023-08-27T08:22:16.997Z,985.88
2023-08-27T08:23:16.956Z,985.78
2023-08-27T08:24:17.041Z,985.72
2023-08-27T08:25:16.946Z,985.77
2023-08-27T08:26:17.146Z,985.83
2023-08-27T08:27:16.942Z,985.85
2023-08-27T08:28:16.923Z,985.92
2023-08-27T08:29:16.930Z,985.90
2023-08-27T08:30:16.915Z,985.94
2023-08-27T08:31:16.950Z,985.92
2023-08-27T08:32:16.905Z,985.95
2023-08-27T08:33:16.924Z,985.89
2023-08-27T08:34:16.909Z,985.86
2023-08-27T08:35:16.892Z,985.86
2023-08-27T08:36:16.873Z,985.86
2023-08-27T08:37:16.872Z,985.77
2023-08-27T08:38:16.890Z,985.68
2023-08-27T08:39:16.874Z,985.58
2023-08-27T08:40:16.863Z,985.62
2023-08-27T08:41:16.855Z,985.67
2023-08-27T08:42:16.837Z,985.72
2023-08-27T08:43:16.839Z,985.74
2023-08-27T08:44:16.823Z,985.75
2023-08-27T08:45:16.839Z,985.73
2023-08-27T08:46:16.840Z,985.74
2023-08-27T08:47:16.817Z,985.71
2023-08-27T08:48:16.858Z,985.73
2023-08-27T08:49:16.839Z,985.68
2023-08-27T08:50:16.851Z,985.66
2023-08-27T08:51:16.812Z,985.66
2023-08-27T08:52:16.781Z,985.63
2023-08-27T08:53:16.779Z,985.60
2023-08-27T08:54:16.816Z,985.57
2023-08-27T08:55:16.779Z,985.57
2023-08-27T08:56:16.770Z,985.59
2023-08-27T08:57:16.754Z,985.55
2023-08-27T08:58:16.825Z,985.54
2023-08-27T08:59:16.790Z,985.60
2023-08-27T09:00:16.753Z,985.67
2023-08-27T09:01:16.782Z,985.71
2023-08-27T09:02:16.769Z,985.80
2023-08-27T09:03:16.796Z,985.74
2023-08-27T09:04:16.764Z,985.77
2023-08-27T09:05:16.794Z,985.74
2023-08-27T09:06:16.796Z,985.69
2023-08-27T09:07:16.774Z,985.74
2023-08-27T09:08:16.688Z,985.79
2023-08-27T09:09:16.701Z,985.80
2023-08-27T09:10:16.734Z,985.78
2023-08-27T09:11:16.681Z,985.77
2023-08-27T09:12:16.690Z,985.81
2023-08-27T09:13:16.671Z,985.86
2023-08-27T09:14:16.683Z,985.89
2023-08-27T09:15:16.658Z,985.93
2023-08-27T09:16:16.743Z,985.95
2023-08-27T09:17:16.837Z,985.97
2023-08-27T09:18:16.657Z,986.00
2023-08-27T09:19:16.915Z,985.94
2023-08-27T09:20:16.736Z,985.93
2023-08-27T09:21:16.620Z,985.89
2023-08-27T09:22:16.663Z,985.85
2023-08-27T09:23:16.697Z,985.80
2023-08-27T09:24:16.598Z,985.82
2023-08-27T09:25:16.592Z,985.80
2023-08-27T09:26:16.608Z,985.74
2023-08-27T09:27:16.583Z,985.78
2023-08-27T09:28:16.633Z,985.76
2023-08-27T09:29:16.578Z,985.81
2023-08-27T09:30:16.592Z,985.86
2023-08-27T09:31:16.621Z,985.96
2023-08-27T09:32:16.615Z,986.01
2023-08-27T09:33:16.564Z,986.07
2023-08-27T09:34:16.562Z,986.03
2023-08-27T09:35:16.571Z,986.09
2023-08-27T09:36:16.603Z,986.06
2023-08-27T09:37:16.576Z,986.00
2023-08-27T09:38:16.627Z,985.95
2023-08-27T09:39:16.741Z,985.92
2023-08-27T09:40:16.528Z,985.87
2023-08-27T09:41:16.563Z,985.91
2023-08-27T09:42:16.722Z,985.89
2023-08-27T09:43:16.477Z,985.92
2023-08-27T09:44:16.472Z,985.95
2023-08-27T09:45:16.469Z,985.97
2023-08-27T09:46:16.503Z,985.94
2023-08-27T09:47:16.660Z,985.93
2023-08-27T09:48:16.480Z,985.92
2023-08-27T09:49:16.450Z,985.87
2023-08-27T09:50:16.651Z,985.85
2023-08-27T09:51:16.441Z,985.85
2023-08-27T09:52:16.484Z,985.80
2023-08-27T09:53:16.438Z,985.76
2023-08-27T09:54:16.467Z,985.77
2023-08-27T09:55:16.471Z,985.82
2023-08-27T09:56:16.417Z,985.82
2023-08-27T09:57:16.422Z,985.83
2023-08-27T09:58:16.442Z,985.80
2023-08-27T09:59:16.442Z,985.87
2023-08-27T10:00:16.415Z,985.91
2023-08-27T10:01:16.478Z,985.92
2023-08-27T10:02:16.497Z,985.92
2023-08-27T10:03:16.452Z,985.91
2023-08-27T10:04:16.397Z,985.92
2023-08-27T10:05:17.070Z,985.97
2023-08-27T10:06:16.362Z,986.06
2023-08-27T10:07:16.349Z,986.04
2023-08-27T10:08:16.338Z,986.02
2023-08-27T10:09:16.329Z,986.00
2023-08-27T10:10:16.354Z,985.91
2023-08-27T10:11:16.336Z,985.94
2023-08-27T10:12:16.515Z,985.88
2023-08-27T10:13:16.309Z,985.89
2023-08-27T10:14:16.348Z,985.86
2023-08-27T10:15:16.305Z,985.89
2023-08-27T10:16:16.587Z,985.88
2023-08-27T10:17:16.325Z,985.86
2023-08-27T10:18:16.391Z,985.88
2023-08-27T10:19:16.272Z,985.84
2023-08-27T10:20:16.263Z,985.86
2023-08-27T10:21:16.316Z,985.87
2023-08-27T10:23:16.464Z,985.86
2023-08-27T10:24:16.448Z,985.81
2023-08-27T10:25:16.305Z,985.78
2023-08-27T10:26:16.270Z,985.82
2023-08-27T10:27:16.247Z,985.76
2023-08-27T10:28:16.270Z,985.77
2023-08-27T10:29:16.241Z,985.70
2023-08-27T10:30:16.266Z,985.74
2023-08-27T10:31:16.431Z,985.70
2023-08-27T10:32:16.232Z,985.68
2023-08-27T10:33:16.264Z,985.67
2023-08-27T10:34:16.189Z,985.67
2023-08-27T10:35:16.205Z,985.64
2023-08-27T10:36:16.189Z,985.56
2023-08-27T10:37:16.166Z,985.52
2023-08-27T10:38:16.188Z,985.50
2023-08-27T10:39:16.168Z,985.46
2023-08-27T10:40:16.159Z,985.45
2023-08-27T10:41:16.152Z,985.43
2023-08-27T10:42:16.138Z,985.42
2023-08-27T10:43:16.136Z,985.44
2023-08-27T10:44:16.136Z,985.41
2023-08-27T10:45:16.132Z,985.37
2023-08-27T10:46:16.178Z,985.31
2023-08-27T10:47:16.215Z,985.23
2023-08-27T10:48:16.109Z,985.24
2023-08-27T10:49:16.119Z,985.23
2023-08-27T10:50:16.133Z,985.21
2023-08-27T10:51:16.101Z,985.21
2023-08-27T10:52:16.104Z,985.18
2023-08-27T10:53:16.089Z,985.15
2023-08-27T10:54:16.076Z,985.17
2023-08-27T10:55:16.081Z,985.16
2023-08-27T10:56:16.077Z,985.11
2023-08-27T10:57:16.110Z,985.07
2023-08-27T10:58:16.065Z,985.03
2023-08-27T10:59:16.055Z,984.96
2023-08-27T11:00:16.064Z,984.90
2023-08-27T11:01:16.148Z,984.85
2023-08-27T11:02:16.085Z,984.89
2023-08-27T11:03:16.300Z,984.88
2023-08-27T11:04:16.030Z,984.95
2023-08-27T11:05:16.026Z,985.00
2023-08-27T11:06:16.059Z,985.06
2023-08-27T11:07:16.019Z,985.04
2023-08-27T11:08:16.014Z,985.06
2023-08-27T11:09:22.252Z,985.02
2023-08-27T11:10:15.994Z,984.98
2023-08-27T11:11:16.480Z,984.91
2023-08-27T11:12:16.014Z,984.93
2023-08-27T11:14:20.291Z,985.00
2023-08-27T11:15:15.970Z,985.02
2023-08-27T11:16:16.206Z,985.13
2023-08-27T11:17:15.948Z,985.15
2023-08-27T11:18:16.016Z,985.18
2023-08-27T11:19:16.141Z,985.18
2023-08-27T11:20:15.932Z,985.19
2023-08-27T11:21:15.949Z,985.20
2023-08-27T11:22:15.953Z,985.20
2023-08-27T11:23:16.154Z,985.19
2023-08-27T11:24:15.936Z,985.26
2023-08-27T11:25:15.927Z,985.24
2023-08-27T11:26:15.912Z,985.25
2023-08-27T11:27:15.940Z,985.26
2023-08-27T11:28:15.989Z,985.28
2023-08-27T11:29:15.905Z,985.28
2023-08-27T11:30:15.883Z,985.27
2023-08-27T11:31:15.915Z,985.24
2023-08-27T11:32:15.894Z,985.21
2023-08-27T11:33:15.862Z,985.22
2023-08-27T11:34:15.883Z,985.21
2023-08-27T11:35:15.856Z,985.16
2023-08-27T11:36:15.843Z,985.14
2023-08-27T11:37:18.774Z,985.15
2023-08-27T11:38:15.915Z,985.16
2023-08-27T11:39:15.849Z,985.18
2023-08-27T11:40:15.828Z,985.18
2023-08-27T11:41:15.886Z,985.19
2023-08-27T11:42:15.821Z,985.19
2023-08-27T11:43:15.815Z,985.18
2023-08-27T11:44:16.011Z,985.23
2023-08-27T11:45:15.814Z,985.24
2023-08-27T11:46:15.868Z,985.26
2023-08-27T11:47:15.797Z,985.27
2023-08-27T11:48:15.965Z,985.26
2023-08-27T11:49:15.848Z,985.33
2023-08-27T11:50:15.926Z,985.33
2023-08-27T11:51:15.793Z,985.31
2023-08-27T11:52:16.047Z,985.28
2023-08-27T11:53:15.797Z,985.26
2023-08-27T11:54:15.834Z,985.24
2023-08-27T11:55:15.806Z,985.22
2023-08-27T11:56:15.739Z,985.20
2023-08-27T11:57:15.859Z,985.22
2023-08-27T11:58:15.718Z,985.21
2023-08-27T11:59:15.840Z,985.24
2023-08-27T12:00:15.732Z,985.31
2023-08-27T12:01:15.857Z,985.37
2023-08-27T12:02:15.707Z,985.38
2023-08-27T12:03:15.706Z,985.42
2023-08-27T12:04:15.704Z,985.45
2023-08-27T12:05:15.713Z,985.45
2023-08-27T12:06:15.693Z,985.42
2023-08-27T12:07:15.671Z,985.39
2023-08-27T12:08:15.665Z,985.41
2023-08-27T12:09:15.685Z,985.46
2023-08-27T12:10:15.723Z,985.41
2023-08-27T12:11:15.639Z,985.35
2023-08-27T12:12:15.644Z,985.28
2023-08-27T12:13:15.629Z,985.22
2023-08-27T12:14:15.624Z,985.20
2023-08-27T12:15:15.623Z,985.13
2023-08-27T12:16:15.679Z,985.14
2023-08-27T12:17:15.621Z,985.12
2023-08-27T12:18:15.629Z,985.15
2023-08-27T12:19:15.606Z,985.14
2023-08-27T12:20:15.587Z,985.12
2023-08-27T12:21:15.610Z,985.15
2023-08-27T12:22:15.614Z,985.17
2023-08-27T12:23:15.590Z,985.16
2023-08-27T12:24:15.567Z,985.16
2023-08-27T12:25:15.782Z,985.10
2023-08-27T12:26:15.583Z,985.03
2023-08-27T12:27:15.575Z,985.04
2023-08-27T12:28:15.574Z,985.00
2023-08-27T12:29:15.573Z,985.01
2023-08-27T12:30:15.554Z,984.99